Grants Pass, Oregon
Current Conditions -  °F | °C
As of 2:56 AM on Sunday 26 Oct 2014 (Local Time) from KSXT Reporting Station
Moderate Fog Moderate Fog  
Wind Chill: -1°   Ceiling: 200
Heat Index:   Visibility: 0.25mi
Dew Point:   Wind: 12mph
Humidity: 100%   Direction: 190°S
Pressure: 30.08"   Gusts: NA
Location:  42.44°N, 123.32°W
Report Text: KSXT 260956Z AUTO 19010KT 1/4SM FG VV002 03/03 A3008 RMK AO2 SLP192 T00280028
Loading
Personal Weather Stations






























Interactive Weather Map
Tropical Storm Tracking
New forecast layout! Learn more

10-Day Weather Forecast

Advertisements
Track Severe Weather on mobile